Time;durP1;ratioP1;P1;durP2;ratioP2;P2;SDS_P1;SDS_P2;PMS_P1;PMS_P2;Temp;Humidity;BMP_temperature;BMP_pressure;BME280_temperature;BME280_humidity;BME280_pressure;Samples;Min_cycle;Max_cycle;Signal;HPM_P1;HPM_P2
2022/08/04 00:00:05;;;;;;;;;12.00;11.67;;;;;24.60;56.15;98679.06;4985245;28;103452;-53
2022/08/04 00:02:37;;;;;;;;;14.00;13.33;;;;;24.60;55.76;98678.22;4974666;28;102632;-53
2022/08/04 00:05:05;;;;;;;;;14.67;14.00;;;;;24.62;55.76;98685.13;4961654;28;109049;-53
2022/08/04 00:08:01;;;;;;;;;13.00;12.33;;;;;24.61;55.96;98683.47;4965956;28;102390;-53
2022/08/04 00:10:29;;;;;;;;;12.00;11.67;;;;;24.60;56.18;98676.28;4963615;28;103491;-53
2022/08/04 00:12:56;;;;;;;;;13.67;12.67;;;;;24.60;55.99;98679.06;4977557;28;102400;-53
2022/08/04 00:15:23;;;;;;;;;14.33;12.00;;;;;24.61;55.95;98680.72;4989205;28;104169;-53
2022/08/04 00:17:56;;;;;;;;;13.00;12.67;;;;;24.62;55.79;98681.53;4965316;28;103138;-53
2022/08/04 00:20:23;;;;;;;;;12.67;11.00;;;;;24.61;55.70;98674.34;4966524;28;102445;-53
2022/08/04 00:22:51;;;;;;;;;12.33;12.33;;;;;24.61;55.84;98672.41;4967367;28;102141;-53
2022/08/04 00:25:18;;;;;;;;;14.33;12.33;;;;;24.60;55.64;98673.53;4977626;28;104332;-53
2022/08/04 00:27:46;;;;;;;;;10.00;9.33;;;;;24.59;55.63;98674.63;4970860;28;102518;-53
2022/08/04 00:30:13;;;;;;;;;13.67;13.67;;;;;24.60;55.74;98669.94;4967250;28;102503;-54
2022/08/04 00:32:40;;;;;;;;;11.67;11.67;;;;;24.60;55.38;98672.69;4971350;28;102548;-53
2022/08/04 00:35:09;;;;;;;;;13.67;12.00;;;;;24.61;55.69;98677.94;4976259;28;104054;-53
2022/08/04 00:37:37;;;;;;;;;12.67;12.67;;;;;24.60;55.69;98672.69;4973519;28;102743;-55
2022/08/04 00:40:31;;;;;;;;;15.67;15.00;;;;;24.57;55.62;98668.59;4976685;28;102271;-53
2022/08/04 00:43:09;;;;;;;;;14.00;13.33;;;;;24.55;55.50;98670.81;4965004;28;102265;-53
2022/08/04 00:45:51;;;;;;;;;15.00;14.00;;;;;24.53;55.37;98675.81;4948695;28;108286;-54
2022/08/04 00:48:59;;;;;;;;;12.67;11.00;;;;;24.52;55.87;98673.31;4983363;27;102590;-54
2022/08/04 00:51:48;;;;;;;;;14.67;14.33;;;;;24.51;55.78;98680.78;4972478;28;102321;-53
2022/08/04 00:55:02;;;;;;;;;12.00;11.67;;;;;24.52;55.74;98667.78;4967780;28;102485;-56
2022/08/04 00:58:02;;;;;;;;;10.00;10.00;;;;;24.49;55.69;98683.03;4952971;28;108842;-53
2022/08/04 01:00:35;;;;;;;;;12.33;10.67;;;;;24.49;55.77;98671.97;4967198;28;102142;-53
2022/08/04 01:03:11;;;;;;;;;12.33;12.33;;;;;24.52;55.77;98681.63;4959106;28;102550;-53
2022/08/04 01:05:51;;;;;;;;;14.00;13.00;;;;;24.52;55.77;98682.44;4963849;28;102296;-53
2022/08/04 01:08:44;;;;;;;;;13.00;12.00;;;;;24.51;55.72;98683.56;4964456;28;104823;-53
2022/08/04 01:11:42;;;;;;;;;13.00;12.00;;;;;24.50;55.38;98673.59;4956873;28;102805;-53
2022/08/04 01:14:28;;;;;;;;;15.67;15.00;;;;;24.48;55.62;98670.31;4973176;28;102365;-54
2022/08/04 01:17:12;;;;;;;;;12.33;12.00;;;;;24.44;55.63;98670.09;4975738;28;102225;-53
2022/08/04 01:19:42;;;;;;;;;12.33;12.33;;;;;24.47;55.59;98678.91;4960441;28;109100;-53
2022/08/04 01:22:28;;;;;;;;;12.00;12.00;;;;;24.43;55.51;98676.72;4967016;28;102248;-53
2022/08/04 01:25:43;;;;;;;;;14.33;13.33;;;;;24.42;55.75;98677.81;4966784;28;102427;-53
2022/08/04 01:28:36;;;;;;;;;12.33;12.00;;;;;24.39;56.14;98674.81;4963598;28;102544;-53
2022/08/04 01:31:34;;;;;;;;;12.33;12.33;;;;;24.39;55.82;98677.59;4954188;28;109006;-53
2022/08/04 01:34:03;;;;;;;;;11.67;11.00;;;;;24.39;55.94;98678.41;4969329;28;102116;-53
2022/08/04 01:36:32;;;;;;;;;15.00;15.00;;;;;24.38;56.07;98675.94;4963907;28;104460;-53
2022/08/04 01:39:39;;;;;;;;;13.33;13.33;;;;;24.37;55.88;98674.28;4978893;28;102138;-53
2022/08/04 01:41:48;;;;;;;;;11.67;11.67;;;;;24.38;55.85;98676.75;4954075;28;108853;-53
2022/08/04 01:44:25;;;;;;;;;15.33;13.33;;;;;24.37;55.65;98679.81;4949619;28;102336;-53
2022/08/04 01:46:53;;;;;;;;;11.67;11.67;;;;;24.37;55.62;98674.28;4977648;28;102573;-53
2022/08/04 01:49:20;;;;;;;;;13.00;12.33;;;;;24.37;55.88;98675.09;4964422;28;102464;-53
2022/08/04 01:51:50;;;;;;;;;13.33;13.00;;;;;24.34;55.54;98677.63;4968369;27;104055;-53
2022/08/04 01:54:18;;;;;;;;;12.00;11.00;;;;;24.34;55.72;98672.09;4974981;28;102248;-55
2022/08/04 01:56:46;;;;;;;;;13.00;13.00;;;;;24.35;55.57;98671.00;4970481;28;102403;-55
2022/08/04 01:59:16;;;;;;;;;13.00;12.33;;;;;24.34;55.61;98672.09;4971369;28;102339;-55
2022/08/04 02:01:44;;;;;;;;;13.67;12.67;;;;;24.34;55.91;98672.91;4978510;28;103140;-55
2022/08/04 02:04:18;;;;;;;;;14.67;13.00;;;;;24.32;55.88;98666.00;4971708;28;102494;-56
2022/08/04 02:07:02;;;;;;;;;12.00;11.00;;;;;24.31;55.80;98670.75;4982758;28;102291;-55
2022/08/04 02:09:42;;;;;;;;;12.67;12.67;;;;;24.31;55.84;98667.16;4966938;28;102783;-55
2022/08/04 02:12:45;;;;;;;;;13.00;12.67;;;;;24.31;56.19;98661.63;4971170;28;109020;-55
2022/08/04 02:15:19;;;;;;;;;11.00;11.00;;;;;24.30;55.90;98668.25;4969597;28;102624;-56
2022/08/04 02:17:49;;;;;;;;;16.67;16.33;;;;;24.31;55.73;98659.69;4964830;28;102239;-55
2022/08/04 02:20:34;;;;;;;;;16.33;13.33;;;;;24.30;55.71;98658.03;4975753;28;102563;-55
2022/08/04 02:23:15;;;;;;;;;13.00;13.00;;;;;24.28;56.04;98659.41;4981288;28;108713;-55
2022/08/04 02:25:46;;;;;;;;;13.00;12.67;;;;;24.27;55.96;98663.31;4962860;28;102389;-55
2022/08/04 02:28:31;;;;;;;;;12.67;12.00;;;;;24.28;55.78;98651.97;4973796;28;102249;-55
2022/08/04 02:31:15;;;;;;;;;14.00;14.00;;;;;24.27;55.67;98652.28;4971117;28;102349;-55
2022/08/04 02:33:45;;;;;;;;;15.00;14.00;;;;;24.26;55.85;98648.69;4959955;28;109310;-55
2022/08/04 02:36:19;;;;;;;;;14.00;11.67;;;;;24.24;55.75;98647.28;4984355;28;102903;-55
2022/08/04 02:38:53;;;;;;;;;13.00;12.33;;;;;24.24;55.53;98647.28;4991345;28;102457;-55
2022/08/04 02:41:25;;;;;;;;;16.00;14.67;;;;;24.23;55.85;98645.63;4973852;28;103383;-55
2022/08/04 02:43:55;;;;;;;;;15.00;14.00;;;;;24.22;55.47;98641.25;4972570;28;104067;-55
2022/08/04 02:46:22;;;;;;;;;11.67;11.67;;;;;24.20;55.95;98637.94;4974206;28;102432;-55
2022/08/04 02:48:52;;;;;;;;;14.00;13.00;;;;;24.20;55.94;98640.69;4995136;27;103367;-55
2022/08/04 02:51:22;;;;;;;;;13.00;13.00;;;;;24.21;55.89;98643.19;4973790;28;102566;-55
2022/08/04 02:53:51;;;;;;;;;15.33;15.33;;;;;24.20;55.97;98638.75;4973634;28;104056;-55
2022/08/04 02:56:19;;;;;;;;;14.33;13.67;;;;;24.20;55.95;98632.41;4980091;28;102564;-55
2022/08/04 02:58:50;;;;;;;;;12.33;12.00;;;;;24.20;55.64;98637.94;4979250;28;102841;-55
2022/08/04 03:01:17;;;;;;;;;15.33;13.00;;;;;24.20;55.95;98640.69;4973024;28;102737;-55
2022/08/04 03:04:08;;;;;;;;;13.33;13.33;;;;;24.21;55.87;98642.34;4962442;28;104068;-55
2022/08/04 03:07:07;;;;;;;;;13.67;12.00;;;;;24.21;55.80;98636.81;4972027;28;102114;-55
2022/08/04 03:10:15;;;;;;;;;9.33;9.00;;;;;24.19;55.55;98639.88;4974772;28;102673;-55
2022/08/04 03:12:54;;;;;;;;;11.67;11.67;;;;;24.20;55.69;98647.06;4970904;28;102229;-55
2022/08/04 03:16:02;;;;;;;;;15.00;14.00;;;;;24.21;55.72;98647.88;4976920;27;104059;-55
2022/08/04 03:18:53;;;;;;;;;14.33;13.67;;;;;24.19;55.71;98639.03;4977406;28;102228;-55
2022/08/04 03:21:38;;;;;;;;;12.00;12.00;;;;;24.17;55.73;98641.28;4967973;27;104294;-55
2022/08/04 03:24:43;;;;;;;;;12.00;12.00;;;;;24.14;55.92;98641.81;4964408;28;110148;-55
2022/08/04 03:27:29;;;;;;;;;14.00;13.33;;;;;24.13;55.89;98640.19;4963937;28;108971;-53
2022/08/04 03:30:18;;;;;;;;;13.00;12.67;;;;;24.11;55.97;98643.22;4975025;28;102319;-54
2022/08/04 03:33:03;;;;;;;;;13.33;13.00;;;;;24.11;55.94;98659.81;4963144;28;102244;-54
2022/08/04 03:36:10;;;;;;;;;14.67;13.67;;;;;24.13;56.02;98652.06;4962289;28;102124;-53
2022/08/04 03:38:46;;;;;;;;;14.00;12.00;;;;;24.13;55.78;98659.53;4969417;28;109048;-54
2022/08/04 03:41:32;;;;;;;;;13.00;12.00;;;;;24.13;55.92;98656.75;4964209;28;102364;-53
2022/08/04 03:44:19;;;;;;;;;13.67;13.00;;;;;24.12;55.86;98655.09;4961452;28;103471;-53
2022/08/04 03:46:59;;;;;;;;;13.67;13.67;;;;;24.11;55.65;98659.81;4959682;28;103220;-53
2022/08/04 03:49:47;;;;;;;;;14.00;14.00;;;;;24.11;55.97;98664.50;4961284;28;104053;-53
2022/08/04 03:55:39;;;;;;;;;11.00;10.00;;;;;24.11;55.74;98664.50;4972981;28;102549;-53
2022/08/04 03:58:28;;;;;;;;;14.00;13.67;;;;;24.09;55.74;98663.97;4974690;28;102551;-55
2022/08/04 04:01:09;;;;;;;;;11.00;11.00;;;;;24.08;55.59;98660.38;4955088;28;104239;-53
2022/08/04 04:04:06;;;;;;;;;12.67;12.67;;;;;24.09;55.90;98666.75;4968679;28;102733;-54
2022/08/04 04:07:10;;;;;;;;;12.00;11.00;;;;;24.08;55.70;98670.59;4971891;28;102254;-53
2022/08/04 04:10:02;;;;;;;;;11.67;11.33;;;;;24.07;55.68;98669.78;4978236;28;102155;-54
2022/08/04 04:12:36;;;;;;;;;13.00;13.00;;;;;24.07;55.84;98663.41;4966560;28;109102;-53
2022/08/04 04:15:09;;;;;;;;;13.67;13.00;;;;;24.09;55.81;98663.97;4964794;28;102250;-53
2022/08/04 04:17:53;;;;;;;;;12.00;11.33;;;;;24.09;55.55;98661.22;4971005;28;103236;-55
2022/08/04 04:20:45;;;;;;;;;10.33;10.33;;;;;24.08;55.47;98665.91;4968120;28;102660;-54
2022/08/04 04:23:21;;;;;;;;;12.00;12.00;;;;;24.08;55.50;98665.09;4971006;28;109222;-53
2022/08/04 04:26:03;;;;;;;;;10.67;10.67;;;;;24.14;55.26;98666.69;4966073;28;102196;-53
2022/08/04 04:29:04;;;;;;;;;13.00;11.67;;;;;24.15;55.20;98665.56;4968418;28;102442;-53
2022/08/04 04:31:54;;;;;;;;;12.00;12.00;;;;;24.15;55.05;98663.63;4967216;28;102691;-53
2022/08/04 04:34:59;;;;;;;;;13.00;10.67;;;;;24.11;55.28;98662.56;4965693;28;108903;-53
2022/08/04 04:37:29;;;;;;;;;11.33;11.00;;;;;24.08;55.26;98665.91;4946293;28;102529;-53
2022/08/04 04:40:14;;;;;;;;;11.00;10.00;;;;;24.06;55.24;98670.88;4995459;28;102851;-53
2022/08/04 04:42:47;;;;;;;;;12.67;11.67;;;;;24.07;55.35;98674.47;4965271;28;102529;-53
2022/08/04 04:45:59;;;;;;;;;11.67;11.00;;;;;24.08;55.06;98676.13;4967494;28;104021;-53
2022/08/04 04:48:38;;;;;;;;;10.00;10.00;;;;;24.06;55.55;98672.81;4947644;28;105555;-53
2022/08/04 04:51:37;;;;;;;;;13.67;12.33;;;;;24.08;55.29;98671.44;4945505;28;103378;-53
2022/08/04 04:54:31;;;;;;;;;10.67;9.67;;;;;24.10;54.91;98674.72;4947230;28;102233;-53
2022/08/04 04:57:14;;;;;;;;;12.00;10.67;;;;;24.14;55.19;98669.44;4960484;28;109227;-53
2022/08/04 05:00:04;;;;;;;;;13.00;13.00;;;;;24.12;54.90;98669.75;4969256;28;102452;-53
2022/08/04 05:02:52;;;;;;;;;10.00;10.00;;;;;24.13;54.71;98673.34;4959094;28;104258;-53
2022/08/04 05:05:32;;;;;;;;;15.67;11.00;;;;;24.12;54.96;98671.69;4974846;28;102425;-53
2022/08/04 05:08:30;;;;;;;;;13.67;11.00;;;;;24.14;54.97;98674.97;4969314;28;104163;-53
2022/08/04 05:11:34;;;;;;;;;10.67;10.33;;;;;24.14;54.73;98675.78;4958943;28;102373;-53
2022/08/04 05:14:07;;;;;;;;;10.67;10.67;;;;;24.14;54.84;98674.97;4969178;28;104344;-53
2022/08/04 05:17:05;;;;;;;;;11.00;11.00;;;;;24.14;54.67;98684.09;4968425;28;102447;-53
2022/08/04 05:19:50;;;;;;;;;9.67;9.67;;;;;24.13;54.77;98684.38;4970995;28;108808;-53
2022/08/04 05:22:29;;;;;;;;;11.33;9.00;;;;;24.13;54.83;98678.88;4979641;27;102518;-53
2022/08/04 05:25:20;;;;;;;;;11.33;10.33;;;;;24.17;54.53;98685.50;4974970;28;102346;-53
2022/08/04 05:28:20;;;;;;;;;12.33;12.00;;;;;24.18;54.50;98678.88;4975499;28;102294;-53
2022/08/04 05:30:50;;;;;;;;;10.00;10.00;;;;;24.19;54.68;98680.50;4968569;27;108788;-53
2022/08/04 05:33:20;;;;;;;;;9.00;8.67;;;;;24.19;54.82;98678.56;4962965;28;102603;-53
2022/08/04 05:35:55;;;;;;;;;11.67;9.33;;;;;24.20;54.75;98680.22;4969831;28;102697;-53
2022/08/04 05:38:42;;;;;;;;;10.00;9.00;;;;;24.22;55.25;98682.69;4996380;28;103193;-53
2022/08/04 05:41:10;;;;;;;;;8.00;7.00;;;;;24.21;55.49;98686.56;4971329;28;104060;-53
2022/08/04 05:43:37;;;;;;;;;9.67;8.67;;;;;24.21;55.54;98684.63;4978286;28;102847;-52
2022/08/04 05:46:04;;;;;;;;;9.00;8.67;;;;;24.22;55.31;98678.00;4992292;28;102579;-53
2022/08/04 05:48:31;;;;;;;;;13.00;9.33;;;;;24.24;55.16;98685.97;4979798;28;102379;-53
2022/08/04 05:50:59;;;;;;;;;11.00;10.00;;;;;24.24;55.59;98680.47;4971796;28;104183;-53
2022/08/04 05:53:27;;;;;;;;;11.33;11.33;;;;;24.22;55.20;98696.50;4982214;28;102436;-53
2022/08/04 05:55:54;;;;;;;;;8.00;7.67;;;;;24.23;55.67;98689.84;4970932;28;102274;-53
2022/08/04 05:58:27;;;;;;;;;11.00;10.00;;;;;24.23;54.94;98676.03;5001007;28;102553;-53
2022/08/04 06:00:55;;;;;;;;;11.00;9.00;;;;;24.22;55.65;98686.28;4963211;28;104106;-53
2022/08/04 06:03:22;;;;;;;;;8.67;8.67;;;;;24.22;55.62;98683.53;4976244;28;101948;-53
2022/08/04 06:05:49;;;;;;;;;10.67;10.00;;;;;24.24;55.54;98685.97;4971960;28;102080;-53
2022/08/04 06:08:16;;;;;;;;;12.00;11.00;;;;;24.23;55.44;98685.16;4971603;28;102723;-53
2022/08/04 06:10:44;;;;;;;;;11.00;9.67;;;;;24.23;55.75;98690.69;4981463;28;104130;-53
2022/08/04 06:13:13;;;;;;;;;9.00;8.67;;;;;24.22;55.65;98683.53;4975397;28;102209;-54
2022/08/04 06:16:00;;;;;;;;;9.33;9.33;;;;;24.22;55.80;98683.53;4986472;28;102012;-53
2022/08/04 06:18:28;;;;;;;;;10.33;9.33;;;;;24.23;55.61;98678.81;4973409;28;102663;-53
2022/08/04 06:21:17;;;;;;;;;10.00;9.00;;;;;24.25;55.74;98694.00;4970364;28;110049;-53
2022/08/04 06:23:44;;;;;;;;;8.00;8.00;;;;;24.23;55.96;98696.22;4976585;28;103318;-53
2022/08/04 06:26:25;;;;;;;;;10.67;10.67;;;;;24.24;55.77;98702.56;4971899;28;102272;-54
2022/08/04 06:28:52;;;;;;;;;10.33;10.33;;;;;24.24;55.91;98697.03;4971255;28;102121;-53
2022/08/04 06:34:25;;;;;;;;;9.00;9.00;;;;;24.22;55.79;98702.88;4969006;28;102379;-53
2022/08/04 06:36:52;;;;;;;;;7.00;7.00;;;;;24.24;55.90;98705.31;4971998;28;102602;-53
2022/08/04 06:39:21;;;;;;;;;12.00;10.33;;;;;24.23;55.78;98701.72;4981717;28;102523;-53
2022/08/04 06:41:49;;;;;;;;;9.00;8.67;;;;;24.22;55.79;98704.81;4977851;28;104179;-53
2022/08/04 06:44:37;;;;;;;;;9.33;9.00;;;;;24.26;55.54;98706.72;4970866;28;102219;-55
2022/08/04 06:47:04;;;;;;;;;13.00;11.00;;;;;24.28;55.65;98703.63;4968223;28;102578;-53
2022/08/04 06:49:33;;;;;;;;;10.00;10.00;;;;;24.27;55.60;98704.78;4990252;27;102401;-53
2022/08/04 06:52:20;;;;;;;;;12.00;10.33;;;;;24.28;55.66;98706.41;4974856;27;109875;-53
2022/08/04 06:54:49;;;;;;;;;10.00;8.33;;;;;24.29;55.39;98705.28;4977680;28;102958;-53
2022/08/04 06:57:26;;;;;;;;;10.33;10.00;;;;;24.30;55.22;98702.25;4968559;28;102485;-53
2022/08/04 06:59:58;;;;;;;;;8.67;8.67;;;;;24.32;55.04;98697.25;4976021;28;102226;-53
2022/08/04 07:02:27;;;;;;;;;10.00;9.33;;;;;24.34;55.12;98699.72;4970535;28;104033;-54
2022/08/04 07:04:55;;;;;;;;;8.33;8.33;;;;;24.34;55.29;98696.97;4967072;28;102440;-53
2022/08/04 07:07:23;;;;;;;;;10.67;9.00;;;;;24.34;54.89;98702.50;4971776;28;102307;-53
2022/08/04 07:10:03;;;;;;;;;9.33;9.33;;;;;24.35;55.10;98699.47;4962182;28;102704;-53
2022/08/04 07:12:30;;;;;;;;;8.00;7.00;;;;;24.34;55.10;98697.78;4962607;28;104119;-52
2022/08/04 07:14:57;;;;;;;;;9.33;9.33;;;;;24.34;55.19;98694.19;4973021;28;102568;-53
2022/08/04 07:17:24;;;;;;;;;7.67;7.33;;;;;24.35;55.11;98699.47;4973960;28;102557;-53
2022/08/04 07:20:00;;;;;;;;;10.33;9.33;;;;;24.35;55.07;98698.63;4972953;28;102219;-53
2022/08/04 07:22:27;;;;;;;;;10.00;10.00;;;;;24.34;54.90;98697.78;4978353;28;104052;-53
2022/08/04 07:24:57;;;;;;;;;8.67;8.67;;;;;24.36;55.05;98701.09;4972438;28;102650;-53
2022/08/04 07:27:26;;;;;;;;;9.67;9.33;;;;;24.36;55.14;98694.75;4971584;28;102404;-54
2022/08/04 07:30:13;;;;;;;;;8.00;7.00;;;;;24.36;54.66;98689.22;4970410;28;102266;-53
2022/08/04 07:32:42;;;;;;;;;9.67;8.00;;;;;24.36;54.94;98689.22;4973707;28;104096;-53
2022/08/04 07:35:09;;;;;;;;;9.00;9.00;;;;;24.38;54.81;98695.28;4972380;28;102535;-53
2022/08/04 07:37:56;;;;;;;;;8.33;8.00;;;;;24.38;54.73;98689.75;4970992;28;102496;-53
2022/08/04 07:40:24;;;;;;;;;8.00;7.67;;;;;24.39;54.89;98683.13;4983192;28;102209;-53
2022/08/04 07:42:51;;;;;;;;;10.67;9.33;;;;;24.40;54.87;98695.81;4974443;28;104066;-53
2022/08/04 07:45:19;;;;;;;;;8.00;8.00;;;;;24.40;54.77;98693.06;4982716;28;102531;-53
2022/08/04 07:47:47;;;;;;;;;7.00;7.00;;;;;24.40;54.59;98690.31;4983990;28;102108;-53
2022/08/04 07:50:32;;;;;;;;;10.33;10.00;;;;;24.40;54.77;98691.13;4974490;28;102494;-53
2022/08/04 07:53:00;;;;;;;;;9.00;8.33;;;;;24.40;54.77;98688.38;4981788;28;104157;-52
2022/08/04 07:55:47;;;;;;;;;12.00;11.00;;;;;24.41;54.71;98686.41;4961201;28;102287;-53
2022/08/04 07:58:14;;;;;;;;;8.00;8.00;;;;;24.41;54.48;98683.63;4968084;28;102718;-53
2022/08/04 08:00:43;;;;;;;;;7.67;7.67;;;;;24.41;54.48;98680.88;4969098;28;102708;-53
2022/08/04 08:03:10;;;;;;;;;10.33;9.00;;;;;24.43;54.59;98684.19;4958126;28;104182;-53
2022/08/04 08:05:38;;;;;;;;;8.00;8.00;;;;;24.43;54.79;98687.78;4973638;28;102210;-53
2022/08/04 08:08:25;;;;;;;;;8.67;8.00;;;;;24.43;54.59;98686.94;4971775;28;102297;-53
2022/08/04 08:10:52;;;;;;;;;11.33;9.00;;;;;24.42;54.60;98688.88;4977980;28;102407;-53
2022/08/04 08:13:19;;;;;;;;;8.33;7.67;;;;;24.43;54.58;98679.47;4961144;28;104225;-53
2022/08/04 08:15:46;;;;;;;;;8.00;7.67;;;;;24.45;54.82;98684.72;4975571;28;105492;-53
2022/08/04 08:18:13;;;;;;;;;7.67;7.00;;;;;24.45;54.41;98681.97;4963489;28;102334;-53
2022/08/04 08:20:44;;;;;;;;;6.67;6.67;;;;;24.47;54.50;98676.13;4968576;27;102640;-54
2022/08/04 08:23:11;;;;;;;;;7.67;7.00;;;;;24.47;54.26;98682.50;4977107;28;104113;-53
2022/08/04 08:25:39;;;;;;;;;5.00;5.00;;;;;24.48;54.57;98683.31;4996329;28;102429;-54
2022/08/04 08:28:06;;;;;;;;;9.00;9.00;;;;;24.48;54.32;98675.03;4987250;28;102280;-53
2022/08/04 08:30:33;;;;;;;;;7.33;6.67;;;;;24.48;54.53;98684.16;4979307;28;102239;-53
2022/08/04 08:33:03;;;;;;;;;9.33;8.00;;;;;24.49;54.55;98682.22;4967671;28;104167;-53
2022/08/04 08:35:43;;;;;;;;;7.00;7.00;;;;;24.49;54.53;98680.28;4967378;28;102166;-53
2022/08/04 08:38:31;;;;;;;;;7.00;7.00;;;;;24.50;54.16;98686.59;4970649;27;101939;-53
2022/08/04 08:41:25;;;;;;;;;9.00;8.33;;;;;24.50;54.57;98681.91;4961457;28;102522;-53
2022/08/04 08:44:18;;;;;;;;;8.33;8.33;;;;;24.51;54.45;98683.56;4941425;28;108722;-53
2022/08/04 08:47:15;;;;;;;;;10.00;9.00;;;;;24.51;54.42;98686.31;4963324;28;102067;-53
2022/08/04 08:49:45;;;;;;;;;8.67;8.00;;;;;24.53;54.39;98684.09;4971290;28;102589;-53
2022/08/04 08:52:49;;;;;;;;;9.67;9.33;;;;;24.54;54.56;98694.03;4972943;28;102466;-53
2022/08/04 08:55:56;;;;;;;;;9.67;9.67;;;;;24.55;54.40;98692.91;4969419;27;109025;-53
2022/08/04 08:58:45;;;;;;;;;8.00;7.00;;;;;24.56;54.51;98685.44;4958942;28;102217;-53
2022/08/04 09:01:28;;;;;;;;;6.67;6.67;;;;;24.57;54.35;98699.00;4964312;28;102261;-53
2022/08/04 09:04:21;;;;;;;;;7.00;6.33;;;;;24.57;54.51;98701.75;4991046;28;102771;-53
2022/08/04 09:07:01;;;;;;;;;8.00;8.00;;;;;24.57;54.56;98693.47;4966737;28;108782;-53
2022/08/04 09:09:34;;;;;;;;;9.33;7.67;;;;;24.58;54.14;98697.06;4970125;28;102192;-53
2022/08/04 09:12:26;;;;;;;;;8.00;8.00;;;;;24.59;54.33;98698.69;4973282;28;102461;-53
2022/08/04 09:15:08;;;;;;;;;8.33;8.00;;;;;24.59;54.26;98690.38;4969723;28;102430;-53
2022/08/04 09:17:55;;;;;;;;;6.67;6.67;;;;;24.59;54.05;98694.00;4953318;28;108657;-53
2022/08/04 09:20:37;;;;;;;;;7.67;7.00;;;;;24.60;54.30;98689.28;4945869;28;102325;-53
2022/08/04 09:23:35;;;;;;;;;6.67;6.67;;;;;24.62;53.87;98698.13;4972886;28;102416;-53
2022/08/04 09:26:10;;;;;;;;;9.00;8.00;;;;;24.62;54.27;98687.06;4931292;28;102539;-53
2022/08/04 09:28:51;;;;;;;;;7.67;7.67;;;;;24.62;54.20;98690.66;4967522;28;109132;-54
2022/08/04 09:31:32;;;;;;;;;7.33;7.33;;;;;24.64;54.35;98688.41;4996422;28;102212;-53
2022/08/04 09:34:28;;;;;;;;;8.00;7.00;;;;;24.64;54.39;98693.94;4958406;28;102440;-53
2022/08/04 09:37:03;;;;;;;;;7.00;6.67;;;;;24.65;54.26;98695.59;4967650;28;102377;-52
2022/08/04 09:40:09;;;;;;;;;7.67;7.67;;;;;24.66;54.22;98690.91;4969011;28;104087;-53
2022/08/04 09:43:45;;;;;;;;;6.33;6.33;;;;;24.67;54.29;98695.31;4975180;28;102286;-53
2022/08/04 09:46:36;;;;;;;;;7.67;7.67;;;;;24.68;54.15;98685.88;4951618;28;102227;-53
2022/08/04 09:49:13;;;;;;;;;6.00;6.00;;;;;24.69;54.17;98687.53;4957811;28;103378;-53
2022/08/04 09:51:52;;;;;;;;;6.00;6.00;;;;;24.69;54.17;98682.00;4949403;28;108740;-53
2022/08/04 09:54:41;;;;;;;;;6.33;6.00;;;;;24.69;54.08;98679.25;4970733;28;102181;-53
2022/08/04 09:57:26;;;;;;;;;6.00;6.00;;;;;24.68;53.85;98675.66;4976171;28;101979;-54
2022/08/04 10:00:07;;;;;;;;;6.33;5.67;;;;;24.69;53.76;98674.53;4975859;28;102140;-53
2022/08/04 10:02:43;;;;;;;;;9.00;8.00;;;;;24.71;53.83;98675.09;4998423;28;109089;-53
2022/08/04 10:05:15;;;;;;;;;6.00;6.00;;;;;24.72;54.16;98670.38;4977689;28;103326;-54
2022/08/04 10:08:22;;;;;;;;;7.00;7.00;;;;;24.72;53.65;98671.19;4972897;28;102994;-53
2022/08/04 10:11:04;;;;;;;;;6.00;6.00;;;;;24.74;54.09;98662.59;4905633;28;102341;-53
2022/08/04 10:13:56;;;;;;;;;6.67;6.00;;;;;24.74;54.02;98666.22;4966125;28;104056;-53
2022/08/04 10:16:45;;;;;;;;;9.67;7.67;;;;;24.76;53.99;98676.97;4967470;28;102418;-53
2022/08/04 10:19:28;;;;;;;;;9.00;8.00;;;;;24.76;53.77;98672.28;4972066;28;102565;-53
2022/08/04 10:22:16;;;;;;;;;7.00;7.00;;;;;24.76;53.90;98669.53;4973452;28;102659;-53
2022/08/04 10:25:21;;;;;;;;;7.33;7.00;;;;;24.77;54.05;98668.38;4970291;28;109136;-53
2022/08/04 10:28:12;;;;;;;;;7.00;6.33;;;;;24.78;53.84;98674.75;4973799;28;102597;-52
2022/08/04 10:30:41;;;;;;;;;8.00;7.00;;;;;24.78;54.14;98675.56;4959066;28;102532;-53
2022/08/04 10:33:13;;;;;;;;;8.00;7.00;;;;;24.78;53.91;98675.56;4972597;28;102196;-54
2022/08/04 10:35:45;;;;;;;;;6.33;6.33;;;;;24.80;53.96;98672.53;4971062;28;103042;-53
2022/08/04 10:38:32;;;;;;;;;7.00;7.00;;;;;24.80;53.73;98656.75;4964978;27;102152;-53
2022/08/04 10:41:04;;;;;;;;;6.00;6.00;;;;;24.80;53.77;98659.50;4981271;28;102707;-53
2022/08/04 10:43:34;;;;;;;;;8.00;8.00;;;;;24.81;53.65;98655.59;4963244;28;102512;-53
2022/08/04 10:46:09;;;;;;;;;6.00;6.00;;;;;24.83;53.63;98661.69;4978839;28;104089;-53
2022/08/04 10:48:43;;;;;;;;;8.00;7.00;;;;;24.84;53.80;98656.97;4964844;28;102075;-54
2022/08/04 10:51:18;;;;;;;;;6.00;6.00;;;;;24.84;54.00;98655.03;4973246;28;102498;-54
2022/08/04 10:53:48;;;;;;;;;8.00;7.00;;;;;24.86;53.89;98644.53;4981270;28;102487;-53
2022/08/04 10:56:31;;;;;;;;;6.00;6.00;;;;;24.86;53.83;98650.06;4981872;28;104059;-53
2022/08/04 10:59:18;;;;;;;;;7.00;6.33;;;;;24.88;53.66;98650.59;4965368;28;102302;-53
2022/08/04 11:01:47;;;;;;;;;6.33;6.33;;;;;24.88;53.74;98647.84;4973904;28;102219;-53
2022/08/04 11:04:46;;;;;;;;;8.00;7.00;;;;;24.90;53.45;98650.31;4999878;27;102545;-53
2022/08/04 11:07:13;;;;;;;;;5.33;5.33;;;;;24.91;53.64;98648.34;4960538;28;108816;-53
2022/08/04 11:09:41;;;;;;;;;6.00;6.00;;;;;24.91;53.53;98646.41;4969683;28;102217;-53
2022/08/04 11:12:23;;;;;;;;;7.00;6.00;;;;;24.93;53.43;98654.44;4968579;28;103141;-54
2022/08/04 11:15:06;;;;;;;;;7.00;6.00;;;;;24.94;53.48;98653.31;4990176;28;102572;-53
2022/08/04 11:17:49;;;;;;;;;5.00;5.00;;;;;24.93;53.54;98659.97;4988877;28;108999;-53
2022/08/04 11:20:37;;;;;;;;;6.67;6.67;;;;;24.93;53.52;98655.25;4957284;28;102129;-53
2022/08/04 11:23:15;;;;;;;;;7.67;7.67;;;;;24.95;53.43;98652.22;4993515;28;102478;-53
2022/08/04 11:26:06;;;;;;;;;7.00;6.00;;;;;24.96;53.53;98653.84;4972908;28;102469;-52
2022/08/04 11:28:51;;;;;;;;;6.67;6.67;;;;;24.98;53.30;98651.63;4972131;28;108962;-53
2022/08/04 11:31:35;;;;;;;;;8.33;6.33;;;;;24.99;53.61;98653.28;4971429;28;102465;-53
2022/08/04 11:34:05;;;;;;;;;7.67;6.00;;;;;25.00;53.48;98650.19;4972884;28;102511;-53
2022/08/04 11:36:40;;;;;;;;;7.33;6.67;;;;;25.00;53.45;98650.19;4968651;28;102230;-53
2022/08/04 11:39:31;;;;;;;;;7.00;6.00;;;;;25.02;53.53;98653.50;4965991;28;108764;-52
2022/08/04 11:42:21;;;;;;;;;7.00;6.00;;;;;25.03;53.37;98640.50;4963071;28;102628;-53
2022/08/04 11:45:08;;;;;;;;;6.00;6.00;;;;;25.04;53.21;98644.88;4975848;28;102975;-53
2022/08/04 11:47:38;;;;;;;;;5.00;5.00;;;;;25.05;53.11;98652.06;4979995;28;102596;-53
2022/08/04 11:50:12;;;;;;;;;7.00;6.67;;;;;25.06;53.12;98642.66;4968339;28;108919;-53
2022/08/04 11:52:42;;;;;;;;;5.33;4.67;;;;;25.07;53.30;98638.78;4978564;28;102788;-53
2022/08/04 11:55:10;;;;;;;;;6.67;5.67;;;;;25.07;53.18;98650.69;4971791;28;102034;-53
2022/08/04 11:57:37;;;;;;;;;6.00;6.00;;;;;25.07;53.21;98639.63;4981423;28;102734;-52
2022/08/04 12:00:11;;;;;;;;;5.00;5.00;;;;;25.09;53.26;98640.13;4979107;28;104034;-53
2022/08/04 12:02:57;;;;;;;;;6.67;6.67;;;;;25.10;53.00;98638.19;4972363;28;102376;-53
2022/08/04 12:05:35;;;;;;;;;7.00;6.00;;;;;25.11;53.06;98648.16;4978174;28;102581;-53
2022/08/04 12:08:15;;;;;;;;;7.00;6.33;;;;;25.12;53.21;98625.72;4974109;28;102211;-53
2022/08/04 12:11:01;;;;;;;;;4.67;4.67;;;;;25.14;53.14;98628.19;4971538;28;109005;-52
2022/08/04 12:13:48;;;;;;;;;5.00;5.00;;;;;25.15;53.09;98624.28;4969645;28;102231;-53
2022/08/04 12:16:21;;;;;;;;;6.67;6.00;;;;;25.15;53.08;98625.13;4964913;28;102217;-53
2022/08/04 12:18:57;;;;;;;;;7.00;6.00;;;;;25.18;53.14;98612.63;4991702;28;102331;-53